Terminal Aerodrome Forecast
Issued by NWS

Home | Current Version | Previous Version | Graphics & Text | Print | Product List | Glossary On
Versions: 1 2 3 4 5 6 7 8 9 10 11 12 13
543
FTUS43 KOAX 270850 AAA
TAFCDR
TAF AMD
KCDR 270850Z 2709/2806 18025G35KT P6SM SCT080 BKN200
     FM271500 21015G25KT P6SM SCT080
     FM271900 25013G23KT P6SM VCTS BKN080CB
     FM280100 22008KT P6SM SCT080=

USA.gov is the U.S. government's official web portal to all federal, state and local government web resources and services.